sensor_id;sensor_type;location;lat;lon;timestamp;P1;durP1;ratioP1;P2;durP2;ratioP2
70549;SDS011;58101;48.658;2.328;2022-10-23T00:00:32;13.27;;;5.90;;
70549;SDS011;58101;48.658;2.328;2022-10-23T00:02:58;13.70;;;6.00;;
70549;SDS011;58101;48.658;2.328;2022-10-23T00:05:24;15.05;;;5.90;;
70549;SDS011;58101;48.658;2.328;2022-10-23T00:07:51;13.57;;;5.53;;
70549;SDS011;58101;48.658;2.328;2022-10-23T00:10:18;13.00;;;5.55;;
70549;SDS011;58101;48.658;2.328;2022-10-23T00:12:45;14.50;;;5.00;;
70549;SDS011;58101;48.658;2.328;2022-10-23T00:15:12;11.82;;;5.00;;
70549;SDS011;58101;48.658;2.328;2022-10-23T00:17:39;14.80;;;5.22;;
70549;SDS011;58101;48.658;2.328;2022-10-23T00:20:05;12.15;;;5.20;;
70549;SDS011;58101;48.658;2.328;2022-10-23T00:22:31;12.63;;;4.90;;
70549;SDS011;58101;48.658;2.328;2022-10-23T00:24:57;14.13;;;5.45;;
70549;SDS011;58101;48.658;2.328;2022-10-23T00:27:22;12.40;;;5.25;;
70549;SDS011;58101;48.658;2.328;2022-10-23T00:29:48;12.45;;;5.07;;
70549;SDS011;58101;48.658;2.328;2022-10-23T00:32:14;14.40;;;5.15;;
70549;SDS011;58101;48.658;2.328;2022-10-23T00:34:39;12.50;;;5.80;;
70549;SDS011;58101;48.658;2.328;2022-10-23T00:37:05;12.93;;;5.57;;
70549;SDS011;58101;48.658;2.328;2022-10-23T00:39:31;15.70;;;5.70;;
70549;SDS011;58101;48.658;2.328;2022-10-23T00:41:56;12.30;;;5.50;;
70549;SDS011;58101;48.658;2.328;2022-10-23T00:46:47;15.27;;;5.38;;
70549;SDS011;58101;48.658;2.328;2022-10-23T00:49:13;14.05;;;5.20;;
70549;SDS011;58101;48.658;2.328;2022-10-23T00:51:50;14.15;;;5.60;;
70549;SDS011;58101;48.658;2.328;2022-10-23T00:54:24;11.80;;;4.30;;
70549;SDS011;58101;48.658;2.328;2022-10-23T00:56:53;15.48;;;4.57;;
70549;SDS011;58101;48.658;2.328;2022-10-23T00:59:23;11.30;;;4.60;;
70549;SDS011;58101;48.658;2.328;2022-10-23T01:01:48;11.52;;;4.57;;
70549;SDS011;58101;48.658;2.328;2022-10-23T01:04:14;12.45;;;4.60;;
70549;SDS011;58101;48.658;2.328;2022-10-23T01:09:37;11.15;;;2.80;;
70549;SDS011;58101;48.658;2.328;2022-10-23T01:12:17;11.38;;;3.25;;
70549;SDS011;58101;48.658;2.328;2022-10-23T01:15:00;9.15;;;2.70;;
70549;SDS011;58101;48.658;2.328;2022-10-23T01:17:40;8.57;;;2.50;;
70549;SDS011;58101;48.658;2.328;2022-10-23T01:29:02;7.38;;;1.92;;
70549;SDS011;58101;48.658;2.328;2022-10-23T01:34:49;9.82;;;2.20;;
70549;SDS011;58101;48.658;2.328;2022-10-23T01:37:22;6.65;;;1.90;;
70549;SDS011;58101;48.658;2.328;2022-10-23T01:39:54;7.72;;;2.10;;
70549;SDS011;58101;48.658;2.328;2022-10-23T01:42:26;8.93;;;2.00;;
70549;SDS011;58101;48.658;2.328;2022-10-23T01:45:01;7.10;;;2.42;;
70549;SDS011;58101;48.658;2.328;2022-10-23T01:47:33;9.65;;;2.83;;
70549;SDS011;58101;48.658;2.328;2022-10-23T01:50:00;10.93;;;3.30;;
70549;SDS011;58101;48.658;2.328;2022-10-23T01:52:28;8.40;;;2.90;;
70549;SDS011;58101;48.658;2.328;2022-10-23T01:54:55;9.10;;;3.03;;
70549;SDS011;58101;48.658;2.328;2022-10-23T01:57:24;9.52;;;2.65;;
70549;SDS011;58101;48.658;2.328;2022-10-23T01:59:56;8.23;;;2.80;;
70549;SDS011;58101;48.658;2.328;2022-10-23T02:02:29;7.10;;;2.30;;
70549;SDS011;58101;48.658;2.328;2022-10-23T02:05:17;9.52;;;2.50;;
70549;SDS011;58101;48.658;2.328;2022-10-23T02:07:47;6.10;;;1.73;;
70549;SDS011;58101;48.658;2.328;2022-10-23T02:10:13;8.13;;;1.92;;
70549;SDS011;58101;48.658;2.328;2022-10-23T02:15:23;8.23;;;1.90;;
70549;SDS011;58101;48.658;2.328;2022-10-23T02:20:56;5.97;;;1.90;;
70549;SDS011;58101;48.658;2.328;2022-10-23T02:23:29;9.43;;;2.00;;
70549;SDS011;58101;48.658;2.328;2022-10-23T02:26:05;8.35;;;2.38;;
70549;SDS011;58101;48.658;2.328;2022-10-23T02:28:45;9.20;;;2.25;;
70549;SDS011;58101;48.658;2.328;2022-10-23T02:31:15;9.85;;;1.90;;
70549;SDS011;58101;48.658;2.328;2022-10-23T02:33:43;7.65;;;2.08;;
70549;SDS011;58101;48.658;2.328;2022-10-23T02:36:11;5.45;;;1.77;;
70549;SDS011;58101;48.658;2.328;2022-10-23T02:38:37;5.88;;;1.70;;
70549;SDS011;58101;48.658;2.328;2022-10-23T02:52:12;6.65;;;2.00;;
70549;SDS011;58101;48.658;2.328;2022-10-23T02:57:39;6.10;;;1.83;;
70549;SDS011;58101;48.658;2.328;2022-10-23T03:00:14;7.47;;;1.92;;
70549;SDS011;58101;48.658;2.328;2022-10-23T03:02:53;7.63;;;2.30;;
70549;SDS011;58101;48.658;2.328;2022-10-23T03:05:27;7.82;;;1.80;;
70549;SDS011;58101;48.658;2.328;2022-10-23T03:07:56;6.63;;;1.83;;
70549;SDS011;58101;48.658;2.328;2022-10-23T03:10:23;9.13;;;2.10;;
70549;SDS011;58101;48.658;2.328;2022-10-23T03:12:49;7.30;;;1.90;;
70549;SDS011;58101;48.658;2.328;2022-10-23T03:15:17;8.05;;;1.90;;
70549;SDS011;58101;48.658;2.328;2022-10-23T03:17:43;9.55;;;1.90;;
70549;SDS011;58101;48.658;2.328;2022-10-23T03:20:09;7.47;;;2.00;;
70549;SDS011;58101;48.658;2.328;2022-10-23T03:25:01;9.57;;;2.35;;
70549;SDS011;58101;48.658;2.328;2022-10-23T03:27:27;6.13;;;1.73;;
70549;SDS011;58101;48.658;2.328;2022-10-23T03:29:52;7.88;;;2.05;;
70549;SDS011;58101;48.658;2.328;2022-10-23T03:32:18;8.77;;;2.00;;
70549;SDS011;58101;48.658;2.328;2022-10-23T03:34:44;6.93;;;1.90;;
70549;SDS011;58101;48.658;2.328;2022-10-23T03:37:09;8.95;;;2.00;;
70549;SDS011;58101;48.658;2.328;2022-10-23T03:39:35;7.20;;;1.90;;
70549;SDS011;58101;48.658;2.328;2022-10-23T03:42:01;7.30;;;2.03;;
70549;SDS011;58101;48.658;2.328;2022-10-23T03:44:26;8.00;;;2.20;;
70549;SDS011;58101;48.658;2.328;2022-10-23T03:46:52;7.78;;;2.10;;
70549;SDS011;58101;48.658;2.328;2022-10-23T03:49:18;10.55;;;2.10;;
70549;SDS011;58101;48.658;2.328;2022-10-23T03:51:43;5.82;;;2.00;;
70549;SDS011;58101;48.658;2.328;2022-10-23T03:54:15;7.25;;;2.05;;
70549;SDS011;58101;48.658;2.328;2022-10-23T03:56:43;7.57;;;1.90;;
70549;SDS011;58101;48.658;2.328;2022-10-23T03:59:08;7.72;;;2.10;;
70549;SDS011;58101;48.658;2.328;2022-10-23T04:01:34;6.75;;;2.05;;
70549;SDS011;58101;48.658;2.328;2022-10-23T04:03:59;8.55;;;2.20;;
70549;SDS011;58101;48.658;2.328;2022-10-23T04:06:25;7.75;;;2.08;;
70549;SDS011;58101;48.658;2.328;2022-10-23T04:08:50;10.07;;;2.10;;
70549;SDS011;58101;48.658;2.328;2022-10-23T04:11:16;9.77;;;2.40;;
70549;SDS011;58101;48.658;2.328;2022-10-23T04:13:42;7.57;;;2.20;;
70549;SDS011;58101;48.658;2.328;2022-10-23T04:16:07;8.77;;;2.15;;
70549;SDS011;58101;48.658;2.328;2022-10-23T04:18:33;9.20;;;2.40;;
70549;SDS011;58101;48.658;2.328;2022-10-23T04:20:59;8.15;;;2.30;;
70549;SDS011;58101;48.658;2.328;2022-10-23T04:23:24;9.88;;;2.55;;
70549;SDS011;58101;48.658;2.328;2022-10-23T04:25:50;11.15;;;2.85;;
70549;SDS011;58101;48.658;2.328;2022-10-23T04:28:15;9.77;;;2.25;;
70549;SDS011;58101;48.658;2.328;2022-10-23T04:30:41;12.05;;;3.65;;
70549;SDS011;58101;48.658;2.328;2022-10-23T04:33:06;8.73;;;2.40;;
70549;SDS011;58101;48.658;2.328;2022-10-23T04:35:32;7.88;;;2.45;;
70549;SDS011;58101;48.658;2.328;2022-10-23T04:37:58;8.43;;;2.45;;
70549;SDS011;58101;48.658;2.328;2022-10-23T04:40:23;7.97;;;2.50;;
70549;SDS011;58101;48.658;2.328;2022-10-23T04:42:49;9.80;;;2.40;;
70549;SDS011;58101;48.658;2.328;2022-10-23T04:45:14;8.57;;;2.45;;
70549;SDS011;58101;48.658;2.328;2022-10-23T04:47:40;9.27;;;2.30;;
70549;SDS011;58101;48.658;2.328;2022-10-23T04:50:06;7.20;;;2.42;;
70549;SDS011;58101;48.658;2.328;2022-10-23T04:52:31;9.48;;;2.70;;
70549;SDS011;58101;48.658;2.328;2022-10-23T04:54:57;12.13;;;3.13;;
70549;SDS011;58101;48.658;2.328;2022-10-23T04:57:23;7.60;;;2.70;;
70549;SDS011;58101;48.658;2.328;2022-10-23T04:59:48;8.63;;;2.63;;
70549;SDS011;58101;48.658;2.328;2022-10-23T05:02:14;8.75;;;2.88;;
70549;SDS011;58101;48.658;2.328;2022-10-23T05:04:39;7.72;;;2.65;;
70549;SDS011;58101;48.658;2.328;2022-10-23T05:07:05;10.85;;;2.58;;
70549;SDS011;58101;48.658;2.328;2022-10-23T05:09:31;8.73;;;2.80;;
70549;SDS011;58101;48.658;2.328;2022-10-23T05:11:56;8.93;;;2.97;;
70549;SDS011;58101;48.658;2.328;2022-10-23T05:14:22;7.82;;;2.70;;
70549;SDS011;58101;48.658;2.328;2022-10-23T05:16:58;11.55;;;2.88;;
70549;SDS011;58101;48.658;2.328;2022-10-23T05:21:55;8.80;;;2.90;;
70549;SDS011;58101;48.658;2.328;2022-10-23T05:24:22;10.73;;;2.75;;
70549;SDS011;58101;48.658;2.328;2022-10-23T05:26:47;11.65;;;3.03;;
70549;SDS011;58101;48.658;2.328;2022-10-23T05:29:16;8.60;;;2.70;;
70549;SDS011;58101;48.658;2.328;2022-10-23T05:31:42;7.60;;;3.03;;
70549;SDS011;58101;48.658;2.328;2022-10-23T05:34:08;9.18;;;2.88;;
70549;SDS011;58101;48.658;2.328;2022-10-23T05:36:35;9.57;;;3.17;;
70549;SDS011;58101;48.658;2.328;2022-10-23T05:39:01;12.57;;;3.75;;
70549;SDS011;58101;48.658;2.328;2022-10-23T05:41:28;10.18;;;3.33;;
70549;SDS011;58101;48.658;2.328;2022-10-23T05:43:53;10.18;;;3.25;;
70549;SDS011;58101;48.658;2.328;2022-10-23T05:46:19;10.25;;;3.92;;
70549;SDS011;58101;48.658;2.328;2022-10-23T05:48:50;12.13;;;3.67;;
70549;SDS011;58101;48.658;2.328;2022-10-23T05:51:16;10.75;;;3.53;;
70549;SDS011;58101;48.658;2.328;2022-10-23T05:53:50;8.88;;;2.90;;
70549;SDS011;58101;48.658;2.328;2022-10-23T05:56:17;13.45;;;3.20;;
70549;SDS011;58101;48.658;2.328;2022-10-23T05:58:43;9.68;;;3.40;;
70549;SDS011;58101;48.658;2.328;2022-10-23T06:01:10;14.45;;;3.50;;
70549;SDS011;58101;48.658;2.328;2022-10-23T06:03:37;7.90;;;3.30;;
70549;SDS011;58101;48.658;2.328;2022-10-23T06:06:04;10.35;;;3.22;;
70549;SDS011;58101;48.658;2.328;2022-10-23T06:08:31;11.43;;;3.30;;
70549;SDS011;58101;48.658;2.328;2022-10-23T06:11:03;8.95;;;3.13;;
70549;SDS011;58101;48.658;2.328;2022-10-23T06:13:30;10.57;;;3.20;;
70549;SDS011;58101;48.658;2.328;2022-10-23T06:15:55;8.95;;;3.03;;
70549;SDS011;58101;48.658;2.328;2022-10-23T06:18:21;11.63;;;3.30;;
70549;SDS011;58101;48.658;2.328;2022-10-23T06:20:47;12.18;;;3.08;;
70549;SDS011;58101;48.658;2.328;2022-10-23T06:23:12;7.35;;;3.20;;
70549;SDS011;58101;48.658;2.328;2022-10-23T06:25:38;8.23;;;3.10;;
70549;SDS011;58101;48.658;2.328;2022-10-23T06:28:03;8.77;;;3.00;;
70549;SDS011;58101;48.658;2.328;2022-10-23T06:30:29;9.65;;;3.28;;
70549;SDS011;58101;48.658;2.328;2022-10-23T06:32:55;9.55;;;3.28;;
70549;SDS011;58101;48.658;2.328;2022-10-23T06:35:21;10.23;;;3.05;;
70549;SDS011;58101;48.658;2.328;2022-10-23T06:37:46;11.57;;;3.45;;
70549;SDS011;58101;48.658;2.328;2022-10-23T06:40:12;8.75;;;3.50;;
70549;SDS011;58101;48.658;2.328;2022-10-23T06:42:38;11.25;;;3.10;;
70549;SDS011;58101;48.658;2.328;2022-10-23T06:45:03;10.27;;;3.47;;
70549;SDS011;58101;48.658;2.328;2022-10-23T06:47:29;13.65;;;3.38;;
70549;SDS011;58101;48.658;2.328;2022-10-23T06:49:55;10.32;;;2.92;;
70549;SDS011;58101;48.658;2.328;2022-10-23T06:52:21;12.38;;;3.15;;
70549;SDS011;58101;48.658;2.328;2022-10-23T06:54:46;11.05;;;3.10;;
70549;SDS011;58101;48.658;2.328;2022-10-23T06:57:12;10.27;;;3.50;;
70549;SDS011;58101;48.658;2.328;2022-10-23T06:59:37;8.85;;;3.28;;
70549;SDS011;58101;48.658;2.328;2022-10-23T07:02:03;9.82;;;3.40;;
70549;SDS011;58101;48.658;2.328;2022-10-23T07:04:29;8.82;;;3.30;;
70549;SDS011;58101;48.658;2.328;2022-10-23T07:06:55;12.38;;;3.28;;
70549;SDS011;58101;48.658;2.328;2022-10-23T07:09:21;8.82;;;3.33;;
70549;SDS011;58101;48.658;2.328;2022-10-23T07:11:47;11.35;;;3.10;;
70549;SDS011;58101;48.658;2.328;2022-10-23T07:14:13;9.32;;;3.28;;
70549;SDS011;58101;48.658;2.328;2022-10-23T07:16:38;10.55;;;3.30;;
70549;SDS011;58101;48.658;2.328;2022-10-23T07:19:04;8.90;;;3.10;;
70549;SDS011;58101;48.658;2.328;2022-10-23T07:21:31;11.02;;;3.35;;
70549;SDS011;58101;48.658;2.328;2022-10-23T07:23:58;8.90;;;3.10;;
70549;SDS011;58101;48.658;2.328;2022-10-23T07:26:25;11.02;;;3.40;;
70549;SDS011;58101;48.658;2.328;2022-10-23T07:28:51;9.10;;;3.10;;
70549;SDS011;58101;48.658;2.328;2022-10-23T07:31:23;9.98;;;3.38;;
70549;SDS011;58101;48.658;2.328;2022-10-23T07:33:49;11.43;;;2.97;;
70549;SDS011;58101;48.658;2.328;2022-10-23T07:36:16;9.13;;;3.08;;
70549;SDS011;58101;48.658;2.328;2022-10-23T07:41:08;10.75;;;2.72;;
70549;SDS011;58101;48.658;2.328;2022-10-23T07:43:34;11.25;;;3.10;;
70549;SDS011;58101;48.658;2.328;2022-10-23T07:46:00;10.02;;;2.83;;
70549;SDS011;58101;48.658;2.328;2022-10-23T07:48:26;11.05;;;3.17;;
70549;SDS011;58101;48.658;2.328;2022-10-23T07:50:53;9.63;;;2.90;;
70549;SDS011;58101;48.658;2.328;2022-10-23T07:53:23;11.85;;;2.95;;
70549;SDS011;58101;48.658;2.328;2022-10-23T07:56:23;11.90;;;2.80;;
70549;SDS011;58101;48.658;2.328;2022-10-23T07:58:45;8.32;;;2.65;;
70549;SDS011;58101;48.658;2.328;2022-10-23T08:01:17;9.85;;;2.55;;
70549;SDS011;58101;48.658;2.328;2022-10-23T08:03:57;9.05;;;2.92;;
70549;SDS011;58101;48.658;2.328;2022-10-23T08:06:24;8.60;;;2.80;;
70549;SDS011;58101;48.658;2.328;2022-10-23T08:08:49;10.23;;;2.70;;
70549;SDS011;58101;48.658;2.328;2022-10-23T08:11:16;8.18;;;3.08;;
70549;SDS011;58101;48.658;2.328;2022-10-23T08:13:49;8.00;;;2.60;;
70549;SDS011;58101;48.658;2.328;2022-10-23T08:16:15;11.75;;;3.05;;
70549;SDS011;58101;48.658;2.328;2022-10-23T08:18:41;8.18;;;2.90;;
70549;SDS011;58101;48.658;2.328;2022-10-23T08:21:09;8.23;;;2.30;;
70549;SDS011;58101;48.658;2.328;2022-10-23T08:26:01;9.60;;;2.33;;
70549;SDS011;58101;48.658;2.328;2022-10-23T08:28:29;9.10;;;2.42;;
70549;SDS011;58101;48.658;2.328;2022-10-23T08:30:55;9.70;;;2.60;;
70549;SDS011;58101;48.658;2.328;2022-10-23T08:33:20;9.32;;;2.63;;
70549;SDS011;58101;48.658;2.328;2022-10-23T08:35:46;8.00;;;2.40;;
70549;SDS011;58101;48.658;2.328;2022-10-23T08:38:12;10.52;;;2.53;;
70549;SDS011;58101;48.658;2.328;2022-10-23T08:40:38;9.00;;;2.60;;
70549;SDS011;58101;48.658;2.328;2022-10-23T08:45:39;7.68;;;2.67;;
70549;SDS011;58101;48.658;2.328;2022-10-23T08:48:12;8.48;;;2.50;;
70549;SDS011;58101;48.658;2.328;2022-10-23T08:50:56;10.18;;;2.67;;
70549;SDS011;58101;48.658;2.328;2022-10-23T08:54:10;9.40;;;2.40;;
70549;SDS011;58101;48.658;2.328;2022-10-23T08:56:30;8.77;;;2.30;;
70549;SDS011;58101;48.658;2.328;2022-10-23T09:01:36;8.65;;;2.33;;
70549;SDS011;58101;48.658;2.328;2022-10-23T09:04:07;7.88;;;2.25;;
70549;SDS011;58101;48.658;2.328;2022-10-23T09:07:20;10.15;;;2.40;;
70549;SDS011;58101;48.658;2.328;2022-10-23T09:09:51;7.03;;;2.25;;
70549;SDS011;58101;48.658;2.328;2022-10-23T09:12:26;9.32;;;2.20;;
70549;SDS011;58101;48.658;2.328;2022-10-23T09:17:33;9.07;;;2.10;;
70549;SDS011;58101;48.658;2.328;2022-10-23T09:23:01;5.60;;;1.80;;
70549;SDS011;58101;48.658;2.328;2022-10-23T09:25:36;10.63;;;2.30;;
70549;SDS011;58101;48.658;2.328;2022-10-23T09:28:03;6.57;;;1.98;;
70549;SDS011;58101;48.658;2.328;2022-10-23T09:30:34;6.82;;;2.00;;
70549;SDS011;58101;48.658;2.328;2022-10-23T09:33:18;8.85;;;2.15;;
70549;SDS011;58101;48.658;2.328;2022-10-23T09:38:35;8.00;;;2.20;;
70549;SDS011;58101;48.658;2.328;2022-10-23T09:41:06;8.18;;;2.00;;
70549;SDS011;58101;48.658;2.328;2022-10-23T09:43:41;7.32;;;2.28;;
70549;SDS011;58101;48.658;2.328;2022-10-23T09:46:07;8.95;;;2.08;;
70549;SDS011;58101;48.658;2.328;2022-10-23T09:48:34;7.10;;;2.00;;
70549;SDS011;58101;48.658;2.328;2022-10-23T09:53:29;7.57;;;1.85;;
70549;SDS011;58101;48.658;2.328;2022-10-23T09:56:25;7.63;;;2.03;;
70549;SDS011;58101;48.658;2.328;2022-10-23T09:58:53;7.60;;;1.98;;
70549;SDS011;58101;48.658;2.328;2022-10-23T10:01:23;6.10;;;1.85;;
70549;SDS011;58101;48.658;2.328;2022-10-23T10:03:50;8.00;;;2.00;;
70549;SDS011;58101;48.658;2.328;2022-10-23T10:06:27;7.03;;;1.92;;
70549;SDS011;58101;48.658;2.328;2022-10-23T10:09:01;9.52;;;1.80;;
70549;SDS011;58101;48.658;2.328;2022-10-23T10:11:45;6.43;;;1.98;;
70549;SDS011;58101;48.658;2.328;2022-10-23T10:16:56;7.25;;;1.90;;
70549;SDS011;58101;48.658;2.328;2022-10-23T10:25:02;8.07;;;1.90;;
70549;SDS011;58101;48.658;2.328;2022-10-23T10:30:36;8.05;;;1.90;;
70549;SDS011;58101;48.658;2.328;2022-10-23T10:33:16;8.95;;;2.05;;
70549;SDS011;58101;48.658;2.328;2022-10-23T10:35:54;12.05;;;2.03;;
70549;SDS011;58101;48.658;2.328;2022-10-23T10:41:36;8.10;;;1.98;;
70549;SDS011;58101;48.658;2.328;2022-10-23T10:55:47;7.38;;;1.85;;
70549;SDS011;58101;48.658;2.328;2022-10-23T11:00:45;9.82;;;2.00;;
70549;SDS011;58101;48.658;2.328;2022-10-23T11:05:55;8.52;;;2.17;;
70549;SDS011;58101;48.658;2.328;2022-10-23T11:08:36;8.15;;;2.00;;
70549;SDS011;58101;48.658;2.328;2022-10-23T11:11:05;10.32;;;1.80;;
70549;SDS011;58101;48.658;2.328;2022-10-23T11:13:37;8.20;;;1.77;;
70549;SDS011;58101;48.658;2.328;2022-10-23T11:16:22;8.38;;;1.92;;
70549;SDS011;58101;48.658;2.328;2022-10-23T11:24:11;7.03;;;1.80;;
70549;SDS011;58101;48.658;2.328;2022-10-23T11:38:47;8.27;;;1.88;;
70549;SDS011;58101;48.658;2.328;2022-10-23T11:41:24;8.20;;;2.13;;
70549;SDS011;58101;48.658;2.328;2022-10-23T11:48:53;9.77;;;2.10;;
70549;SDS011;58101;48.658;2.328;2022-10-23T11:56:34;7.38;;;1.80;;
70549;SDS011;58101;48.658;2.328;2022-10-23T11:59:17;7.35;;;1.83;;
70549;SDS011;58101;48.658;2.328;2022-10-23T12:01:58;6.20;;;1.70;;
70549;SDS011;58101;48.658;2.328;2022-10-23T12:07:14;8.68;;;2.15;;
70549;SDS011;58101;48.658;2.328;2022-10-23T12:09:50;7.95;;;1.77;;
70549;SDS011;58101;48.658;2.328;2022-10-23T12:12:27;6.70;;;1.73;;
70549;SDS011;58101;48.658;2.328;2022-10-23T12:14:53;6.72;;;1.70;;
70549;SDS011;58101;48.658;2.328;2022-10-23T12:17:31;7.13;;;1.85;;
70549;SDS011;58101;48.658;2.328;2022-10-23T12:33:48;8.65;;;1.75;;
70549;SDS011;58101;48.658;2.328;2022-10-23T12:39:30;7.20;;;1.70;;
70549;SDS011;58101;48.658;2.328;2022-10-23T12:41:56;9.60;;;1.80;;
70549;SDS011;58101;48.658;2.328;2022-10-23T12:44:23;9.57;;;1.75;;
70549;SDS011;58101;48.658;2.328;2022-10-23T12:46:50;7.30;;;1.60;;
70549;SDS011;58101;48.658;2.328;2022-10-23T12:49:21;9.48;;;1.90;;
70549;SDS011;58101;48.658;2.328;2022-10-23T12:51:59;7.22;;;1.77;;
70549;SDS011;58101;48.658;2.328;2022-10-23T12:54:29;8.02;;;2.08;;
70549;SDS011;58101;48.658;2.328;2022-10-23T12:56:56;12.23;;;2.25;;
70549;SDS011;58101;48.658;2.328;2022-10-23T12:59:22;7.57;;;1.80;;
70549;SDS011;58101;48.658;2.328;2022-10-23T13:02:00;8.73;;;1.90;;
70549;SDS011;58101;48.658;2.328;2022-10-23T13:04:32;8.90;;;2.13;;
70549;SDS011;58101;48.658;2.328;2022-10-23T13:07:00;7.03;;;1.55;;
70549;SDS011;58101;48.658;2.328;2022-10-23T13:09:31;7.45;;;1.95;;
70549;SDS011;58101;48.658;2.328;2022-10-23T13:12:01;9.90;;;1.90;;
70549;SDS011;58101;48.658;2.328;2022-10-23T13:14:39;6.72;;;1.88;;
70549;SDS011;58101;48.658;2.328;2022-10-23T13:17:08;7.93;;;1.88;;
70549;SDS011;58101;48.658;2.328;2022-10-23T13:19:34;7.07;;;1.70;;
70549;SDS011;58101;48.658;2.328;2022-10-23T13:22:05;7.60;;;1.70;;
70549;SDS011;58101;48.658;2.328;2022-10-23T13:24:43;6.22;;;1.73;;
70549;SDS011;58101;48.658;2.328;2022-10-23T13:29:53;7.93;;;1.52;;
70549;SDS011;58101;48.658;2.328;2022-10-23T13:32:21;8.95;;;1.60;;
70549;SDS011;58101;48.658;2.328;2022-10-23T13:34:50;16.67;;;2.40;;
70549;SDS011;58101;48.658;2.328;2022-10-23T13:37:23;10.40;;;2.47;;
70549;SDS011;58101;48.658;2.328;2022-10-23T13:40:00;7.35;;;1.70;;
70549;SDS011;58101;48.658;2.328;2022-10-23T13:42:28;7.32;;;2.00;;
70549;SDS011;58101;48.658;2.328;2022-10-23T13:44:54;7.82;;;1.50;;
70549;SDS011;58101;48.658;2.328;2022-10-23T13:47:20;10.30;;;2.08;;
70549;SDS011;58101;48.658;2.328;2022-10-23T13:49:45;8.82;;;2.00;;
70549;SDS011;58101;48.658;2.328;2022-10-23T13:52:12;7.30;;;1.90;;
70549;SDS011;58101;48.658;2.328;2022-10-23T13:54:41;9.98;;;2.10;;
70549;SDS011;58101;48.658;2.328;2022-10-23T13:57:10;11.43;;;1.98;;
70549;SDS011;58101;48.658;2.328;2022-10-23T13:59:38;10.75;;;1.90;;
70549;SDS011;58101;48.658;2.328;2022-10-23T14:02:14;9.05;;;1.90;;
70549;SDS011;58101;48.658;2.328;2022-10-23T14:04:43;9.60;;;2.00;;
70549;SDS011;58101;48.658;2.328;2022-10-23T14:07:10;8.82;;;1.80;;
70549;SDS011;58101;48.658;2.328;2022-10-23T14:09:36;8.52;;;2.00;;
70549;SDS011;58101;48.658;2.328;2022-10-23T14:12:01;7.05;;;1.83;;
70549;SDS011;58101;48.658;2.328;2022-10-23T14:14:27;8.95;;;1.90;;
70549;SDS011;58101;48.658;2.328;2022-10-23T14:16:53;10.38;;;1.88;;
70549;SDS011;58101;48.658;2.328;2022-10-23T14:19:19;9.48;;;1.92;;
70549;SDS011;58101;48.658;2.328;2022-10-23T14:21:44;10.20;;;1.80;;
70549;SDS011;58101;48.658;2.328;2022-10-23T14:24:10;8.93;;;2.20;;
70549;SDS011;58101;48.658;2.328;2022-10-23T14:26:35;10.38;;;2.10;;
70549;SDS011;58101;48.658;2.328;2022-10-23T14:29:02;11.95;;;2.10;;
70549;SDS011;58101;48.658;2.328;2022-10-23T14:31:28;8.05;;;2.03;;
70549;SDS011;58101;48.658;2.328;2022-10-23T14:33:54;8.35;;;1.98;;
70549;SDS011;58101;48.658;2.328;2022-10-23T14:36:21;12.93;;;2.17;;
70549;SDS011;58101;48.658;2.328;2022-10-23T14:38:47;8.88;;;2.40;;
70549;SDS011;58101;48.658;2.328;2022-10-23T14:41:14;10.65;;;2.25;;
70549;SDS011;58101;48.658;2.328;2022-10-23T14:43:41;10.15;;;2.22;;
70549;SDS011;58101;48.658;2.328;2022-10-23T14:46:08;11.10;;;2.38;;
70549;SDS011;58101;48.658;2.328;2022-10-23T14:48:38;9.25;;;2.00;;
70549;SDS011;58101;48.658;2.328;2022-10-23T14:51:05;12.40;;;2.10;;
70549;SDS011;58101;48.658;2.328;2022-10-23T14:53:32;8.07;;;2.17;;
70549;SDS011;58101;48.658;2.328;2022-10-23T14:56:01;12.25;;;2.20;;
70549;SDS011;58101;48.658;2.328;2022-10-23T14:58:28;6.32;;;1.80;;
70549;SDS011;58101;48.658;2.328;2022-10-23T15:01:00;11.23;;;2.38;;
70549;SDS011;58101;48.658;2.328;2022-10-23T15:03:27;12.82;;;2.75;;
70549;SDS011;58101;48.658;2.328;2022-10-23T15:06:02;8.98;;;2.00;;
70549;SDS011;58101;48.658;2.328;2022-10-23T15:08:29;7.72;;;2.40;;
70549;SDS011;58101;48.658;2.328;2022-10-23T15:10:57;9.82;;;2.40;;
70549;SDS011;58101;48.658;2.328;2022-10-23T15:13:26;9.05;;;2.05;;
70549;SDS011;58101;48.658;2.328;2022-10-23T15:16:02;11.18;;;2.20;;
70549;SDS011;58101;48.658;2.328;2022-10-23T15:18:30;10.57;;;2.08;;
70549;SDS011;58101;48.658;2.328;2022-10-23T15:20:56;6.40;;;1.90;;
70549;SDS011;58101;48.658;2.328;2022-10-23T15:23:21;12.70;;;2.70;;
70549;SDS011;58101;48.658;2.328;2022-10-23T15:25:54;11.50;;;2.53;;
70549;SDS011;58101;48.658;2.328;2022-10-23T15:28:20;12.80;;;2.72;;
70549;SDS011;58101;48.658;2.328;2022-10-23T15:30:46;10.88;;;2.60;;
70549;SDS011;58101;48.658;2.328;2022-10-23T15:33:12;8.40;;;2.50;;
70549;SDS011;58101;48.658;2.328;2022-10-23T15:35:37;10.93;;;2.03;;
70549;SDS011;58101;48.658;2.328;2022-10-23T15:38:03;8.93;;;2.15;;
70549;SDS011;58101;48.658;2.328;2022-10-23T15:40:28;11.52;;;2.10;;
70549;SDS011;58101;48.658;2.328;2022-10-23T15:42:54;10.50;;;2.15;;
70549;SDS011;58101;48.658;2.328;2022-10-23T15:45:20;9.57;;;2.00;;
70549;SDS011;58101;48.658;2.328;2022-10-23T15:47:45;8.40;;;2.00;;
70549;SDS011;58101;48.658;2.328;2022-10-23T15:50:13;12.85;;;2.10;;
70549;SDS011;58101;48.658;2.328;2022-10-23T15:52:40;9.27;;;2.13;;
70549;SDS011;58101;48.658;2.328;2022-10-23T15:55:05;9.25;;;2.00;;
70549;SDS011;58101;48.658;2.328;2022-10-23T15:57:35;10.02;;;2.20;;
70549;SDS011;58101;48.658;2.328;2022-10-23T16:00:03;9.98;;;2.00;;
70549;SDS011;58101;48.658;2.328;2022-10-23T16:02:31;12.00;;;2.55;;
70549;SDS011;58101;48.658;2.328;2022-10-23T16:04:56;10.07;;;2.60;;
70549;SDS011;58101;48.658;2.328;2022-10-23T16:07:22;12.15;;;2.35;;
70549;SDS011;58101;48.658;2.328;2022-10-23T16:09:48;6.18;;;1.48;;
70549;SDS011;58101;48.658;2.328;2022-10-23T16:12:13;7.38;;;1.60;;
70549;SDS011;58101;48.658;2.328;2022-10-23T16:14:39;6.55;;;1.50;;
70549;SDS011;58101;48.658;2.328;2022-10-23T16:17:08;5.78;;;1.23;;
70549;SDS011;58101;48.658;2.328;2022-10-23T16:19:34;6.45;;;1.20;;
70549;SDS011;58101;48.658;2.328;2022-10-23T16:21:59;8.27;;;1.40;;
70549;SDS011;58101;48.658;2.328;2022-10-23T16:24:27;8.70;;;1.23;;
70549;SDS011;58101;48.658;2.328;2022-10-23T16:26:54;7.53;;;1.30;;
70549;SDS011;58101;48.658;2.328;2022-10-23T16:29:21;6.60;;;1.30;;
70549;SDS011;58101;48.658;2.328;2022-10-23T16:31:49;6.97;;;1.10;;
70549;SDS011;58101;48.658;2.328;2022-10-23T16:34:18;6.63;;;1.13;;
70549;SDS011;58101;48.658;2.328;2022-10-23T16:36:45;5.35;;;1.10;;
70549;SDS011;58101;48.658;2.328;2022-10-23T16:39:11;5.45;;;1.00;;
70549;SDS011;58101;48.658;2.328;2022-10-23T16:41:38;4.85;;;1.00;;
70549;SDS011;58101;48.658;2.328;2022-10-23T16:44:04;6.40;;;1.10;;
70549;SDS011;58101;48.658;2.328;2022-10-23T16:46:30;7.30;;;1.05;;
70549;SDS011;58101;48.658;2.328;2022-10-23T16:48:56;4.75;;;1.00;;
70549;SDS011;58101;48.658;2.328;2022-10-23T16:51:28;6.15;;;1.00;;
70549;SDS011;58101;48.658;2.328;2022-10-23T16:53:57;5.85;;;1.10;;
70549;SDS011;58101;48.658;2.328;2022-10-23T16:56:24;5.72;;;1.23;;
70549;SDS011;58101;48.658;2.328;2022-10-23T16:58:52;6.07;;;1.20;;
70549;SDS011;58101;48.658;2.328;2022-10-23T17:01:20;5.30;;;1.23;;
70549;SDS011;58101;48.658;2.328;2022-10-23T17:03:48;7.00;;;1.00;;
70549;SDS011;58101;48.658;2.328;2022-10-23T17:06:19;5.53;;;1.13;;
70549;SDS011;58101;48.658;2.328;2022-10-23T17:08:53;5.63;;;1.20;;
70549;SDS011;58101;48.658;2.328;2022-10-23T17:11:21;6.35;;;0.93;;
70549;SDS011;58101;48.658;2.328;2022-10-23T17:13:54;7.60;;;1.13;;
70549;SDS011;58101;48.658;2.328;2022-10-23T17:16:23;6.85;;;1.15;;